VOZ127 YSCB-WADD
Flight info
| Callsign | VOZ127 |
|---|---|
| Flight time | N/A |
| Altitude | 32000 |
| Route | AVBEG W137 CWR DCT PKS A576 POLEV/N0446F340 A576 AS A587 JATAR/N0453F360 A587 ONOXA G326 NYOMA |
| Aircraft | B738/M-SDE2E3FGHIRWXY/LB1 |
Departure
| Time | 2026-04-27 03:44 |
|---|---|
| Airport | Canberra Airport (YSCB) |
Arrival
| Time | N/A |
|---|---|
| Airport | Denpasar I Gusti Ngurah Rai International Airport (WADD) |
| Time | Latitude | Longitude | Altitude | Speed | Heading |
|---|---|---|---|---|---|
| 2026-04-27 03:29 | -35.30618 | 149.18976 | 1894 ft | 0 kts | 215° |
| 2026-04-27 03:37 | -35.30611 | 149.18983 | 1894 ft | 4 kts | 215° |
| 2026-04-27 03:38 | -35.30588 | 149.19002 | 1894 ft | 4 kts | 215° |
| 2026-04-27 03:38 | -35.30567 | 149.19018 | 1894 ft | 4 kts | 195° |
| 2026-04-27 03:38 | -35.30543 | 149.19018 | 1894 ft | 4 kts | 148° |
| 2026-04-27 03:38 | -35.30533 | 149.19009 | 1894 ft | 0 kts | 130° |
| 2026-04-27 03:40 | -35.30547 | 149.19028 | 1894 ft | 7 kts | 130° |
| 2026-04-27 03:41 | -35.30634 | 149.19155 | 1894 ft | 18 kts | 130° |
| 2026-04-27 03:41 | -35.30571 | 149.19235 | 1894 ft | 21 kts | 1° |
| 2026-04-27 03:41 | -35.30404 | 149.19241 | 1894 ft | 27 kts | 2° |
| 2026-04-27 03:41 | -35.30197 | 149.19239 | 1894 ft | 32 kts | 359° |
| 2026-04-27 03:42 | -35.29961 | 149.19241 | 1894 ft | 34 kts | 2° |
| 2026-04-27 03:42 | -35.29730 | 149.19253 | 1894 ft | 32 kts | 3° |
| 2026-04-27 03:42 | -35.29516 | 149.19268 | 1894 ft | 30 kts | 4° |
| 2026-04-27 03:42 | -35.29319 | 149.19283 | 1894 ft | 27 kts | 2° |
| 2026-04-27 03:43 | -35.29137 | 149.19293 | 1894 ft | 25 kts | 10° |
| 2026-04-27 03:43 | -35.29102 | 149.19448 | 1894 ft | 10 kts | 162° |
| 2026-04-27 03:43 | -35.29170 | 149.19447 | 1894 ft | 34 kts | 181° |
| 2026-04-27 03:43 | -35.29622 | 149.19444 | 1894 ft | 95 kts | 180° |
| 2026-04-27 03:44 | -35.30469 | 149.19447 | 1894 ft | 147 kts | 180° |
| 2026-04-27 03:44 | -35.31640 | 149.19446 | 1996 ft | 183 kts | 179° |
| 2026-04-27 03:44 | -35.32945 | 149.19429 | 2649 ft | 187 kts | 181° |
| 2026-04-27 03:44 | -35.34260 | 149.19410 | 3379 ft | 192 kts | 182° |
| 2026-04-27 03:45 | -35.35600 | 149.19213 | 3920 ft | 200 kts | 194° |
| 2026-04-27 03:45 | -35.37027 | 149.18838 | 4214 ft | 218 kts | 195° |
| 2026-04-27 03:45 | -35.37530 | 149.18697 | 4377 ft | 224 kts | 195° |
| 2026-04-27 03:46 | -35.38062 | 149.18546 | 4480 ft | 231 kts | 195° |
| 2026-04-27 03:46 | -35.39705 | 149.18102 | 4795 ft | 249 kts | 195° |
| 2026-04-27 03:46 | -35.41433 | 149.17634 | 5344 ft | 260 kts | 194° |
| 2026-04-27 03:46 | -35.43252 | 149.17226 | 5885 ft | 272 kts | 184° |
| 2026-04-27 03:47 | -35.45138 | 149.17607 | 6573 ft | 279 kts | 160° |
| 2026-04-27 03:47 | -35.46722 | 149.18977 | 7275 ft | 284 kts | 130° |
| 2026-04-27 03:47 | -35.47101 | 149.19650 | 7514 ft | 285 kts | 119° |
| 2026-04-27 03:48 | -35.47545 | 149.21239 | 7999 ft | 286 kts | 98° |
| 2026-04-27 03:48 | -35.47330 | 149.23646 | 8706 ft | 287 kts | 71° |
| 2026-04-27 03:48 | -35.46637 | 149.25944 | 9418 ft | 289 kts | 67° |
| 2026-04-27 03:48 | -35.45541 | 149.28042 | 10087 ft | 291 kts | 44° |
| 2026-04-27 03:49 | -35.43897 | 149.29423 | 10674 ft | 295 kts | 22° |
| 2026-04-27 03:49 | -35.41878 | 149.29972 | 11052 ft | 307 kts | 1° |
| 2026-04-27 03:49 | -35.41180 | 149.29976 | 11140 ft | 312 kts | 358° |
| 2026-04-27 03:50 | -35.39199 | 149.29887 | 11373 ft | 328 kts | 360° |
| 2026-04-27 03:50 | -35.36918 | 149.30092 | 11606 ft | 345 kts | 7° |
| 2026-04-27 03:50 | -35.34433 | 149.30609 | 11850 ft | 362 kts | 9° |
| 2026-04-27 03:50 | -35.31951 | 149.31120 | 12277 ft | 370 kts | 7° |
| 2026-04-27 03:51 | -35.29345 | 149.31215 | 12880 ft | 372 kts | 354° |
| 2026-04-27 03:51 | -35.26847 | 149.30581 | 13480 ft | 374 kts | 342° |
| 2026-04-27 03:51 | -35.26012 | 149.30229 | 13685 ft | 374 kts | 339° |
| 2026-04-27 03:51 | -35.25653 | 149.30061 | 13773 ft | 375 kts | 338° |
| 2026-04-27 03:52 | -35.23266 | 149.28761 | 14364 ft | 377 kts | 334° |
| 2026-04-27 03:52 | -35.20912 | 149.27306 | 14947 ft | 380 kts | 332° |
| 2026-04-27 03:52 | -35.18555 | 149.25815 | 15519 ft | 383 kts | 333° |
| 2026-04-27 03:52 | -35.16174 | 149.24339 | 16073 ft | 386 kts | 333° |
| 2026-04-27 03:53 | -35.13767 | 149.22865 | 16610 ft | 388 kts | 333° |
| 2026-04-27 03:53 | -35.11341 | 149.21386 | 17130 ft | 391 kts | 333° |
| 2026-04-27 03:53 | -35.10517 | 149.20877 | 17303 ft | 392 kts | 333° |
| 2026-04-27 03:53 | -35.09551 | 149.20285 | 17503 ft | 393 kts | 333° |
| 2026-04-27 03:54 | -35.07093 | 149.18789 | 18000 ft | 396 kts | 334° |
| 2026-04-27 03:54 | -35.04620 | 149.17294 | 18481 ft | 399 kts | 334° |
| 2026-04-27 03:54 | -35.02122 | 149.15789 | 18955 ft | 402 kts | 334° |
| 2026-04-27 03:54 | -34.99609 | 149.14278 | 19424 ft | 404 kts | 334° |
| 2026-04-27 03:55 | -34.97076 | 149.12756 | 19884 ft | 407 kts | 334° |
| 2026-04-27 03:55 | -34.94525 | 149.11226 | 20332 ft | 410 kts | 334° |
| 2026-04-27 03:55 | -34.93659 | 149.10707 | 20480 ft | 411 kts | 334° |
| 2026-04-27 03:55 | -34.93544 | 149.10638 | 20500 ft | 411 kts | 334° |
| 2026-04-27 03:56 | -34.91241 | 149.09257 | 20883 ft | 413 kts | 334° |
| 2026-04-27 03:56 | -34.88656 | 149.07709 | 21299 ft | 416 kts | 334° |
| 2026-04-27 03:56 | -34.86047 | 149.06146 | 21708 ft | 419 kts | 334° |
| 2026-04-27 03:56 | -34.83417 | 149.04598 | 22103 ft | 421 kts | 336° |
| 2026-04-27 03:57 | -34.80692 | 149.03256 | 22492 ft | 423 kts | 340° |
| 2026-04-27 03:57 | -34.77906 | 149.02078 | 22871 ft | 426 kts | 342° |
| 2026-04-27 03:57 | -34.76970 | 149.01708 | 22994 ft | 427 kts | 342° |
| 2026-04-27 03:58 | -34.75128 | 149.01003 | 23228 ft | 428 kts | 343° |
| 2026-04-27 03:58 | -34.72275 | 148.99916 | 23577 ft | 431 kts | 342° |
| 2026-04-27 03:58 | -34.69409 | 148.98807 | 23919 ft | 433 kts | 342° |
| 2026-04-27 03:58 | -34.66529 | 148.97680 | 24253 ft | 436 kts | 342° |
| 2026-04-27 03:59 | -34.63636 | 148.96540 | 24582 ft | 438 kts | 342° |
| 2026-04-27 03:59 | -34.60731 | 148.95392 | 24902 ft | 441 kts | 342° |
| 2026-04-27 03:59 | -34.59742 | 148.95001 | 25000 ft | 442 kts | 342° |
| 2026-04-27 03:59 | -34.58906 | 148.94670 | 25090 ft | 443 kts | 342° |
| 2026-04-27 04:00 | -34.56559 | 148.93740 | 25346 ft | 444 kts | 342° |
| 2026-04-27 04:00 | -34.53611 | 148.92572 | 25647 ft | 447 kts | 342° |
| 2026-04-27 04:00 | -34.50648 | 148.91397 | 25932 ft | 449 kts | 342° |
| 2026-04-27 04:00 | -34.47677 | 148.90209 | 26218 ft | 451 kts | 342° |
| 2026-04-27 04:01 | -34.44681 | 148.89014 | 26466 ft | 454 kts | 342° |
| 2026-04-27 04:01 | -34.41677 | 148.87819 | 26776 ft | 455 kts | 342° |
| 2026-04-27 04:01 | -34.40659 | 148.87415 | 26866 ft | 456 kts | 342° |
| 2026-04-27 04:01 | -34.39138 | 148.86811 | 26991 ft | 457 kts | 342° |
| 2026-04-27 04:02 | -34.36111 | 148.85611 | 27235 ft | 459 kts | 342° |
| 2026-04-27 04:02 | -34.33064 | 148.84404 | 27465 ft | 462 kts | 342° |
| 2026-04-27 04:02 | -34.30005 | 148.83194 | 27735 ft | 463 kts | 342° |
| 2026-04-27 04:02 | -34.26946 | 148.81985 | 28099 ft | 462 kts | 342° |
| 2026-04-27 04:03 | -34.23896 | 148.80780 | 28452 ft | 461 kts | 342° |
| 2026-04-27 04:03 | -34.20848 | 148.79577 | 28777 ft | 461 kts | 342° |
| 2026-04-27 04:03 | -34.19859 | 148.79187 | 28884 ft | 461 kts | 342° |
| 2026-04-27 04:03 | -34.18289 | 148.78568 | 29054 ft | 460 kts | 342° |
| 2026-04-27 04:04 | -34.15249 | 148.77369 | 29378 ft | 460 kts | 342° |
| 2026-04-27 04:04 | -34.12210 | 148.76163 | 29699 ft | 459 kts | 342° |
| 2026-04-27 04:04 | -34.09171 | 148.74964 | 30014 ft | 459 kts | 342° |
| 2026-04-27 04:04 | -34.06139 | 148.73772 | 30358 ft | 458 kts | 342° |
| 2026-04-27 04:05 | -34.03121 | 148.72588 | 30727 ft | 456 kts | 342° |
| 2026-04-27 04:05 | -34.00108 | 148.71407 | 31051 ft | 455 kts | 342° |
| 2026-04-27 04:05 | -33.99133 | 148.71025 | 31154 ft | 454 kts | 342° |
| 2026-04-27 04:06 | -33.95373 | 148.69553 | 31546 ft | 453 kts | 341° |
| 2026-04-27 04:06 | -33.92379 | 148.68382 | 31837 ft | 453 kts | 341° |
| 2026-04-27 04:06 | -33.89386 | 148.67211 | 32120 ft | 452 kts | 341° |